Weather at San Mateo Airport [CLOSED]

Public forecast

Using degrees Fahrenheit for public forecast. Weather courtesy of forecast.io.

Closest aviation weather report (METAR) to San Mateo Airport

Closest report is San Carlos Airport, 3.5 nm (6.5 km) SE.

2024/05/26 09:35 (retrieved 14 minutes ago)

KSQL 260935Z AUTO 30003KT 8SM CLR 10/07 A3006 RMK AO2

Closest aviation forecast (TAF) to San Mateo Airport

Closest forecast is San Francisco International Airport, 5.2 nm (9.6 km) NW.

2024/05/26 09:00 Ammendment (retrieved 49 minutes ago)

TAF AMD KSFO 260859Z 2609/2712 26008KT P6SM OVC016 FM261700 28010KT P6SM BKN015 FM262100 29015G20KT P6SM FEW015 FM270800 26010KT P6SM BKN010